Time;durP1;ratioP1;P1;durP2;ratioP2;P2;SDS_P1;SDS_P2;PMS_P1;PMS_P2;Temp;Humidity;BMP_temperature;BMP_pressure;BME280_temperature;BME280_humidity;BME280_pressure;Samples;Min_cycle;Max_cycle;Signal;HPM_P1;HPM_P2
2022/06/07 00:00:35;;;;;;;11.07;8.43;;;;;;;;;;5002595;28;20197;-64
2022/06/07 00:03:02;;;;;;;11.00;8.98;;;;;;;;;;5002798;28;20187;-64
2022/06/07 00:05:28;;;;;;;9.27;7.88;;;;;;;;;;5006770;28;20183;-65
2022/06/07 00:07:54;;;;;;;10.13;7.90;;;;;;;;;;5004858;28;20194;-64
2022/06/07 00:10:21;;;;;;;10.95;7.75;;;;;;;;;;5009612;28;20206;-64
2022/06/07 00:12:46;;;;;;;11.40;8.27;;;;;;;;;;5012755;28;20329;-65
2022/06/07 00:15:12;;;;;;;11.88;9.30;;;;;;;;;;5000528;28;20274;-65
2022/06/07 00:17:37;;;;;;;12.02;9.30;;;;;;;;;;5007497;28;20746;-66
2022/06/07 00:20:05;;;;;;;13.02;9.68;;;;;;;;;;5007485;28;20290;-64
2022/06/07 00:22:30;;;;;;;13.95;9.02;;;;;;;;;;5010127;28;20266;-64
2022/06/07 00:24:56;;;;;;;11.57;9.27;;;;;;;;;;5009846;28;20838;-64
2022/06/07 00:27:21;;;;;;;14.70;10.38;;;;;;;;;;5006199;28;20659;-64
2022/06/07 00:29:47;;;;;;;13.25;10.70;;;;;;;;;;4995928;28;20211;-66
2022/06/07 00:32:16;;;;;;;12.45;9.73;;;;;;;;;;4998986;28;20543;-65
2022/06/07 00:34:41;;;;;;;13.13;10.00;;;;;;;;;;4992246;28;20211;-65
2022/06/07 00:37:06;;;;;;;14.02;10.02;;;;;;;;;;5003456;28;20525;-65
2022/06/07 00:39:32;;;;;;;13.43;10.27;;;;;;;;;;5002444;28;20287;-65
2022/06/07 00:41:57;;;;;;;15.25;10.23;;;;;;;;;;5004098;28;20191;-65
2022/06/07 00:44:31;;;;;;;14.93;10.95;;;;;;;;;;5000471;28;20183;-65
2022/06/07 00:47:01;;;;;;;13.35;11.13;;;;;;;;;;5004900;28;20182;-64
2022/06/07 00:49:31;;;;;;;13.32;10.05;;;;;;;;;;4999395;28;20273;-65
2022/06/07 00:51:56;;;;;;;13.45;10.98;;;;;;;;;;4999226;28;20246;-64
2022/06/07 00:54:30;;;;;;;16.70;11.35;;;;;;;;;;5005734;28;20222;-65
2022/06/07 00:56:56;;;;;;;13.60;11.13;;;;;;;;;;5006083;28;20199;-65
2022/06/07 00:59:22;;;;;;;15.32;11.40;;;;;;;;;;5002304;28;20195;-66
2022/06/07 01:01:47;;;;;;;13.45;9.63;;;;;;;;;;5001914;28;20271;-68
2022/06/07 01:04:13;;;;;;;14.40;11.77;;;;;;;;;;5002262;28;20265;-65
2022/06/07 01:12:06;;;;;;;14.65;10.88;;;;;;;;;;4997053;28;20202;-65
2022/06/07 01:14:32;;;;;;;13.52;10.20;;;;;;;;;;5009819;28;20179;-68
2022/06/07 01:16:58;;;;;;;14.57;11.30;;;;;;;;;;5009228;28;20286;-65
2022/06/07 01:19:24;;;;;;;14.15;11.23;;;;;;;;;;5010061;28;20211;-64
2022/06/07 01:21:50;;;;;;;15.20;11.98;;;;;;;;;;4996847;28;20183;-64
2022/06/07 01:24:16;;;;;;;16.02;11.80;;;;;;;;;;4994949;28;20231;-64
2022/06/07 01:26:42;;;;;;;18.38;13.00;;;;;;;;;;5004020;28;20562;-64
2022/06/07 01:29:10;;;;;;;16.13;11.73;;;;;;;;;;5010023;28;20202;-67
2022/06/07 01:31:36;;;;;;;15.63;11.13;;;;;;;;;;5009650;28;20206;-65
2022/06/07 01:34:01;;;;;;;17.60;13.07;;;;;;;;;;5005448;28;20548;-65
2022/06/07 01:36:27;;;;;;;16.75;12.50;;;;;;;;;;5005242;28;20213;-65
2022/06/07 01:41:55;;;;;;;17.70;13.05;;;;;;;;;;5008558;28;20624;-65
2022/06/07 01:44:22;;;;;;;17.38;13.35;;;;;;;;;;5004107;28;20591;-65
2022/06/07 01:46:47;;;;;;;19.48;13.55;;;;;;;;;;5004188;28;20187;-67
2022/06/07 01:49:13;;;;;;;18.38;12.88;;;;;;;;;;5007906;28;20193;-65
2022/06/07 01:51:38;;;;;;;18.13;12.88;;;;;;;;;;5003394;28;20526;-66
2022/06/07 01:54:04;;;;;;;18.75;13.48;;;;;;;;;;5003332;28;20187;-66
2022/06/07 01:56:29;;;;;;;19.65;14.63;;;;;;;;;;5002486;28;20695;-68
2022/06/07 01:58:56;;;;;;;20.33;14.02;;;;;;;;;;5002955;28;20193;-69
2022/06/07 02:01:21;;;;;;;22.42;15.30;;;;;;;;;;4998778;28;20267;-65
2022/06/07 02:03:47;;;;;;;23.23;16.65;;;;;;;;;;4994635;28;20515;-65
2022/06/07 02:06:12;;;;;;;23.83;16.50;;;;;;;;;;5002182;28;20193;-66
2022/06/07 02:08:40;;;;;;;23.25;16.00;;;;;;;;;;5000420;28;20859;-65
2022/06/07 02:11:13;;;;;;;25.17;17.90;;;;;;;;;;5007749;28;20175;-66
2022/06/07 02:13:39;;;;;;;28.92;17.20;;;;;;;;;;4989491;28;20588;-65
2022/06/07 02:16:05;;;;;;;24.58;16.23;;;;;;;;;;4996079;28;20269;-66
2022/06/07 02:18:31;;;;;;;30.45;20.70;;;;;;;;;;5003452;28;20675;-66
2022/06/07 02:20:59;;;;;;;28.98;19.67;;;;;;;;;;5005886;28;20190;-65
2022/06/07 02:23:25;;;;;;;31.33;20.98;;;;;;;;;;5009446;28;20190;-65
2022/06/07 02:25:53;;;;;;;34.80;21.95;;;;;;;;;;5015894;28;20292;-65
2022/06/07 02:28:22;;;;;;;30.80;19.75;;;;;;;;;;5002859;28;20182;-65
2022/06/07 02:30:47;;;;;;;33.40;21.85;;;;;;;;;;5004987;28;20207;-65
2022/06/07 02:33:14;;;;;;;30.27;19.35;;;;;;;;;;5006409;28;20673;-70
2022/06/07 02:35:42;;;;;;;34.38;22.70;;;;;;;;;;5004931;28;20207;-64
2022/06/07 02:38:08;;;;;;;37.95;21.75;;;;;;;;;;5004188;28;20588;-65
2022/06/07 02:40:35;;;;;;;36.85;21.80;;;;;;;;;;5009501;28;20611;-64
2022/06/07 02:43:01;;;;;;;34.88;22.73;;;;;;;;;;4997584;28;20178;-65
2022/06/07 02:45:27;;;;;;;36.17;22.95;;;;;;;;;;5005295;28;20907;-65
2022/06/07 02:47:53;;;;;;;38.70;23.38;;;;;;;;;;5001045;28;20861;-66
2022/06/07 02:50:18;;;;;;;43.15;24.48;;;;;;;;;;4996788;28;20270;-65
2022/06/07 02:52:44;;;;;;;44.58;24.67;;;;;;;;;;4998325;28;20542;-65
2022/06/07 02:55:09;;;;;;;40.40;25.05;;;;;;;;;;5002034;28;20528;-65
2022/06/07 02:57:35;;;;;;;43.17;25.42;;;;;;;;;;5005105;28;20206;-65
2022/06/07 03:00:01;;;;;;;40.58;25.30;;;;;;;;;;5001631;28;20244;-65
2022/06/07 03:02:27;;;;;;;42.00;26.30;;;;;;;;;;5008437;28;20657;-65
2022/06/07 03:04:53;;;;;;;45.70;26.10;;;;;;;;;;5007932;28;20190;-65
2022/06/07 03:07:18;;;;;;;36.75;24.65;;;;;;;;;;5006553;28;20229;-65
2022/06/07 03:09:43;;;;;;;45.45;26.13;;;;;;;;;;5000704;28;20190;-65
2022/06/07 03:12:09;;;;;;;44.45;26.77;;;;;;;;;;5000954;28;20631;-66
2022/06/07 03:14:34;;;;;;;44.83;25.58;;;;;;;;;;5003026;28;20182;-67
2022/06/07 03:17:00;;;;;;;46.40;27.35;;;;;;;;;;5009055;28;20226;-65
2022/06/07 03:19:28;;;;;;;47.90;27.70;;;;;;;;;;4998080;28;20186;-65
2022/06/07 03:21:54;;;;;;;44.20;27.25;;;;;;;;;;4995308;28;20290;-65
2022/06/07 03:24:19;;;;;;;42.30;27.27;;;;;;;;;;5004221;28;20309;-65
2022/06/07 03:26:45;;;;;;;47.78;27.58;;;;;;;;;;5002769;28;20225;-66
2022/06/07 03:29:10;;;;;;;45.45;27.60;;;;;;;;;;5005053;28;20194;-65
2022/06/07 03:31:36;;;;;;;44.47;27.80;;;;;;;;;;5006288;28;20650;-64
2022/06/07 03:34:01;;;;;;;45.22;27.80;;;;;;;;;;5011702;28;20360;-65
2022/06/07 03:36:29;;;;;;;49.38;28.70;;;;;;;;;;5010038;28;20225;-66
2022/06/07 03:38:58;;;;;;;45.85;29.05;;;;;;;;;;5005121;28;20214;-66
2022/06/07 03:41:26;;;;;;;44.50;26.17;;;;;;;;;;5003781;28;20178;-64
2022/06/07 03:43:52;;;;;;;46.22;28.23;;;;;;;;;;5010453;28;20555;-65
2022/06/07 03:46:20;;;;;;;44.47;27.67;;;;;;;;;;5006656;28;20221;-65
2022/06/07 03:48:46;;;;;;;46.97;27.77;;;;;;;;;;5009455;28;20491;-66
2022/06/07 03:51:13;;;;;;;45.42;27.10;;;;;;;;;;5009151;28;20199;-65
2022/06/07 03:53:39;;;;;;;44.00;27.98;;;;;;;;;;5007439;28;20304;-66
2022/06/07 03:56:06;;;;;;;47.58;27.45;;;;;;;;;;5010140;28;20194;-65
2022/06/07 03:58:32;;;;;;;47.47;28.83;;;;;;;;;;5009309;28;20558;-66
2022/06/07 04:00:59;;;;;;;44.90;28.77;;;;;;;;;;4999971;28;20272;-66
2022/06/07 04:03:25;;;;;;;39.17;25.25;;;;;;;;;;5009994;28;20273;-67
2022/06/07 04:05:51;;;;;;;42.80;26.73;;;;;;;;;;5008544;28;20290;-65
2022/06/07 04:08:17;;;;;;;43.05;27.70;;;;;;;;;;5002044;28;20180;-68
2022/06/07 04:10:51;;;;;;;46.95;27.73;;;;;;;;;;5013198;28;20501;-66
2022/06/07 04:13:19;;;;;;;45.30;27.98;;;;;;;;;;4994730;28;20245;-65
2022/06/07 04:15:44;;;;;;;42.60;27.00;;;;;;;;;;5005031;28;20186;-65
2022/06/07 04:18:10;;;;;;;45.22;28.45;;;;;;;;;;5008623;28;20263;-64
2022/06/07 04:20:36;;;;;;;43.45;26.35;;;;;;;;;;5008805;28;20229;-65
2022/06/07 04:23:02;;;;;;;40.00;25.45;;;;;;;;;;5010320;28;20195;-66
2022/06/07 04:25:29;;;;;;;42.13;26.20;;;;;;;;;;5008827;28;20714;-65
2022/06/07 04:27:54;;;;;;;38.78;23.92;;;;;;;;;;5011462;28;20664;-65
2022/06/07 04:30:20;;;;;;;36.58;24.42;;;;;;;;;;5010554;28;20217;-66
2022/06/07 04:32:47;;;;;;;39.20;24.25;;;;;;;;;;5011351;28;20210;-65
2022/06/07 04:35:17;;;;;;;36.72;24.55;;;;;;;;;;5008373;28;20178;-65
2022/06/07 04:37:46;;;;;;;29.88;19.98;;;;;;;;;;5007707;28;20626;-67
2022/06/07 04:40:12;;;;;;;33.45;20.83;;;;;;;;;;5004605;28;20192;-65
2022/06/07 04:42:38;;;;;;;35.65;22.75;;;;;;;;;;5011728;28;20226;-66
2022/06/07 04:45:06;;;;;;;34.95;22.98;;;;;;;;;;5009156;28;20183;-65
2022/06/07 04:47:32;;;;;;;38.50;23.70;;;;;;;;;;5000712;28;20202;-65
2022/06/07 04:49:58;;;;;;;37.30;24.52;;;;;;;;;;4999702;28;20195;-66
2022/06/07 04:52:23;;;;;;;36.35;24.42;;;;;;;;;;5001389;28;20179;-65
2022/06/07 04:54:48;;;;;;;33.20;23.05;;;;;;;;;;5010692;28;20289;-66
2022/06/07 04:57:14;;;;;;;35.22;23.75;;;;;;;;;;5007645;28;20210;-65
2022/06/07 04:59:39;;;;;;;36.00;22.83;;;;;;;;;;5008947;28;20186;-65
2022/06/07 05:02:04;;;;;;;32.55;22.02;;;;;;;;;;5009104;28;20225;-65
2022/06/07 05:04:30;;;;;;;36.45;22.88;;;;;;;;;;5007655;28;20186;-64
2022/06/07 05:06:55;;;;;;;38.03;23.67;;;;;;;;;;5009549;28;20555;-65
2022/06/07 05:09:22;;;;;;;34.13;22.85;;;;;;;;;;5005735;28;20202;-66
2022/06/07 05:11:49;;;;;;;34.58;23.13;;;;;;;;;;5006588;28;20193;-65
2022/06/07 05:14:14;;;;;;;30.63;20.73;;;;;;;;;;5009059;28;20186;-64
2022/06/07 05:16:41;;;;;;;38.30;22.67;;;;;;;;;;5006793;28;20206;-64
2022/06/07 05:19:08;;;;;;;31.15;20.80;;;;;;;;;;5008243;28;20195;-65
2022/06/07 05:21:33;;;;;;;30.67;19.48;;;;;;;;;;5004066;28;20223;-66
2022/06/07 05:23:59;;;;;;;28.23;18.70;;;;;;;;;;5007830;28;20693;-65
2022/06/07 05:26:45;;;;;;;26.30;18.42;;;;;;;;;;5032184;28;20237;-66
2022/06/07 05:29:16;;;;;;;28.38;18.13;;;;;;;;;;5004219;28;20210;-67
2022/06/07 05:31:42;;;;;;;27.42;18.50;;;;;;;;;;5004880;28;20434;-64
2022/06/07 05:34:08;;;;;;;28.13;18.17;;;;;;;;;;5004619;28;20511;-66
2022/06/07 05:36:33;;;;;;;28.70;18.67;;;;;;;;;;5002580;28;20741;-65
2022/06/07 05:38:58;;;;;;;26.73;19.65;;;;;;;;;;5032321;28;20667;-65
2022/06/07 05:41:29;;;;;;;28.38;19.75;;;;;;;;;;4997361;28;20209;-66
2022/06/07 05:43:56;;;;;;;29.95;19.63;;;;;;;;;;5003673;28;20201;-65
2022/06/07 05:46:22;;;;;;;29.30;19.50;;;;;;;;;;5010017;28;20258;-66
2022/06/07 05:48:47;;;;;;;26.23;18.02;;;;;;;;;;4996658;28;20183;-66
2022/06/07 05:51:13;;;;;;;24.75;17.25;;;;;;;;;;5000929;28;20241;-65
2022/06/07 05:53:39;;;;;;;29.38;20.30;;;;;;;;;;5004431;28;20190;-66
2022/06/07 05:56:06;;;;;;;31.35;20.98;;;;;;;;;;5005943;28;20187;-67
2022/06/07 05:58:32;;;;;;;31.80;21.65;;;;;;;;;;4999764;28;20211;-66
2022/06/07 06:00:57;;;;;;;34.63;22.00;;;;;;;;;;5002453;28;20657;-68
2022/06/07 06:03:22;;;;;;;32.92;20.52;;;;;;;;;;5008204;28;20187;-65
2022/06/07 06:05:48;;;;;;;31.80;20.83;;;;;;;;;;5005519;28;20233;-65
2022/06/07 06:11:26;;;;;;;23.25;16.08;;;;;;;;;;4996027;28;20202;-65
2022/06/07 06:13:52;;;;;;;28.25;17.88;;;;;;;;;;4997419;28;20241;-66
2022/06/07 06:16:20;;;;;;;24.48;17.27;;;;;;;;;;5006508;28;20186;-65
2022/06/07 06:18:48;;;;;;;23.20;16.92;;;;;;;;;;5000164;28;20544;-66
2022/06/07 06:21:13;;;;;;;23.45;15.00;;;;;;;;;;5001078;28;20285;-67
2022/06/07 06:23:39;;;;;;;20.83;15.30;;;;;;;;;;5005690;28;20182;-67
2022/06/07 06:26:08;;;;;;;21.20;14.68;;;;;;;;;;5005545;28;20720;-65
2022/06/07 06:28:34;;;;;;;23.13;14.88;;;;;;;;;;5003036;28;20198;-68
2022/06/07 06:31:02;;;;;;;23.05;14.70;;;;;;;;;;5005214;28;20295;-68
2022/06/07 06:33:28;;;;;;;18.90;12.88;;;;;;;;;;4999558;28;20195;-65
2022/06/07 06:35:55;;;;;;;20.65;12.80;;;;;;;;;;5002335;28;20194;-65
2022/06/07 06:38:22;;;;;;;18.05;12.55;;;;;;;;;;5003396;28;20678;-65
2022/06/07 06:40:48;;;;;;;16.95;12.02;;;;;;;;;;5005586;28;20191;-67
2022/06/07 06:43:14;;;;;;;16.77;11.63;;;;;;;;;;5003032;28;20216;-67
2022/06/07 06:45:41;;;;;;;16.88;11.65;;;;;;;;;;4994602;28;20191;-65
2022/06/07 06:48:08;;;;;;;18.80;11.88;;;;;;;;;;4997906;28;20251;-67
2022/06/07 06:50:34;;;;;;;13.88;10.70;;;;;;;;;;5004014;28;20186;-65
2022/06/07 06:53:00;;;;;;;15.90;9.27;;;;;;;;;;5005848;28;20719;-68
2022/06/07 06:55:25;;;;;;;16.98;10.40;;;;;;;;;;5007157;28;20324;-66
2022/06/07 06:57:50;;;;;;;13.90;10.40;;;;;;;;;;5005902;28;20203;-65
2022/06/07 07:00:17;;;;;;;18.95;11.05;;;;;;;;;;5008179;28;20244;-65
2022/06/07 07:02:43;;;;;;;14.82;9.70;;;;;;;;;;5004355;28;20194;-65
2022/06/07 07:05:12;;;;;;;12.13;9.20;;;;;;;;;;5008136;28;20494;-66
2022/06/07 07:07:39;;;;;;;10.65;8.00;;;;;;;;;;5007498;28;20187;-66
2022/06/07 07:10:05;;;;;;;10.30;8.13;;;;;;;;;;5007876;28;20203;-66
2022/06/07 07:12:34;;;;;;;12.05;8.02;;;;;;;;;;5006154;28;20194;-68
2022/06/07 07:15:00;;;;;;;12.32;8.60;;;;;;;;;;5005465;28;20236;-64
2022/06/07 07:17:26;;;;;;;12.65;7.35;;;;;;;;;;5002818;28;20206;-68
2022/06/07 07:19:52;;;;;;;14.40;7.53;;;;;;;;;;5006468;28;20191;-68
2022/06/07 07:22:18;;;;;;;12.25;7.40;;;;;;;;;;5007914;28;20229;-65
2022/06/07 07:24:44;;;;;;;13.70;7.00;;;;;;;;;;5007149;28;20714;-65
2022/06/07 07:27:09;;;;;;;11.45;7.10;;;;;;;;;;5038369;28;20214;-64
2022/06/07 07:29:34;;;;;;;10.13;7.00;;;;;;;;;;5008400;28;20270;-68
2022/06/07 07:32:00;;;;;;;14.40;7.32;;;;;;;;;;4996592;28;20210;-66
2022/06/07 07:34:25;;;;;;;8.60;6.97;;;;;;;;;;5007635;28;20611;-66
2022/06/07 07:36:53;;;;;;;8.73;6.70;;;;;;;;;;5005068;28;20199;-65
2022/06/07 07:39:19;;;;;;;7.32;6.25;;;;;;;;;;4998761;28;20182;-65
2022/06/07 07:41:48;;;;;;;11.27;7.40;;;;;;;;;;5037251;28;20198;-69
2022/06/07 07:44:15;;;;;;;9.50;6.07;;;;;;;;;;5001774;28;20186;-66
2022/06/07 07:46:43;;;;;;;10.40;6.45;;;;;;;;;;5004636;28;20561;-68
2022/06/07 07:49:12;;;;;;;10.70;7.10;;;;;;;;;;5004798;28;22122;-66
2022/06/07 07:51:40;;;;;;;13.85;8.13;;;;;;;;;;5001585;28;20190;-68
2022/06/07 07:54:09;;;;;;;9.30;6.72;;;;;;;;;;5005380;28;20171;-65
2022/06/07 07:56:35;;;;;;;14.07;7.53;;;;;;;;;;5005698;28;20218;-66
2022/06/07 07:59:02;;;;;;;12.63;7.82;;;;;;;;;;5005995;28;20258;-65
2022/06/07 08:01:28;;;;;;;11.95;6.93;;;;;;;;;;5005958;28;20202;-66
2022/06/07 08:03:57;;;;;;;9.70;7.72;;;;;;;;;;5009908;28;20300;-66
2022/06/07 08:06:23;;;;;;;9.52;6.30;;;;;;;;;;5008220;28;20688;-67
2022/06/07 08:08:52;;;;;;;12.52;7.20;;;;;;;;;;5011619;28;20178;-66
2022/06/07 08:11:20;;;;;;;9.00;6.60;;;;;;;;;;5007693;28;20190;-67
2022/06/07 08:13:46;;;;;;;8.18;6.00;;;;;;;;;;5009932;28;20186;-67
2022/06/07 08:16:12;;;;;;;10.20;6.38;;;;;;;;;;5004680;28;20252;-66
2022/06/07 08:18:39;;;;;;;8.00;6.05;;;;;;;;;;4999879;28;20187;-68
2022/06/07 08:21:08;;;;;;;7.32;5.85;;;;;;;;;;5003203;28;20182;-66
2022/06/07 08:23:35;;;;;;;7.78;5.88;;;;;;;;;;5003432;28;20266;-65
2022/06/07 08:26:03;;;;;;;6.95;5.80;;;;;;;;;;5008043;28;20577;-66
2022/06/07 08:28:29;;;;;;;8.73;6.57;;;;;;;;;;4999752;28;20202;-65
2022/06/07 08:30:54;;;;;;;7.72;6.30;;;;;;;;;;5009236;28;20199;-68
2022/06/07 08:38:54;;;;;;;7.85;5.97;;;;;;;;;;4996841;28;20190;-66
2022/06/07 08:41:20;;;;;;;10.38;6.22;;;;;;;;;;5008627;28;20202;-66
2022/06/07 08:43:46;;;;;;;11.05;6.03;;;;;;;;;;4999982;28;20179;-69
2022/06/07 08:46:15;;;;;;;9.35;6.20;;;;;;;;;;5009159;28;20543;-66
2022/06/07 08:48:42;;;;;;;9.02;6.07;;;;;;;;;;5005472;28;20174;-67
2022/06/07 08:51:26;;;;;;;7.03;5.72;;;;;;;;;;5006200;28;20191;-66
2022/06/07 08:53:54;;;;;;;7.28;5.95;;;;;;;;;;5005630;28;20190;-66
2022/06/07 08:56:26;;;;;;;8.15;6.13;;;;;;;;;;5002947;28;20606;-67
2022/06/07 08:58:54;;;;;;;9.07;5.72;;;;;;;;;;5009776;28;20187;-65
2022/06/07 09:01:43;;;;;;;10.45;6.25;;;;;;;;;;5006140;28;20178;-66
2022/06/07 09:04:41;;;;;;;8.82;5.75;;;;;;;;;;5009859;28;20695;-66
2022/06/07 09:07:19;;;;;;;10.15;5.82;;;;;;;;;;5006862;28;20658;-66
2022/06/07 09:12:35;;;;;;;8.20;6.10;;;;;;;;;;5009295;28;20274;-66
2022/06/07 09:15:10;;;;;;;9.00;6.18;;;;;;;;;;5009352;28;20198;-70
2022/06/07 09:17:48;;;;;;;9.70;6.93;;;;;;;;;;4999064;28;20257;-68
2022/06/07 09:20:17;;;;;;;5.82;5.22;;;;;;;;;;4991521;28;20662;-67
2022/06/07 09:22:54;;;;;;;6.10;5.50;;;;;;;;;;4997737;28;20192;-65
2022/06/07 09:25:26;;;;;;;8.32;5.63;;;;;;;;;;5005580;28;20266;-67
2022/06/07 09:27:52;;;;;;;8.40;6.07;;;;;;;;;;5006387;28;20278;-66
2022/06/07 09:30:27;;;;;;;13.10;6.50;;;;;;;;;;4994369;28;20207;-65
2022/06/07 09:32:53;;;;;;;8.25;6.40;;;;;;;;;;5005528;28;20190;-66
2022/06/07 09:35:40;;;;;;;11.50;6.25;;;;;;;;;;5009065;28;20183;-67
2022/06/07 09:38:16;;;;;;;8.65;6.15;;;;;;;;;;5004259;28;20229;-65
2022/06/07 09:40:53;;;;;;;11.82;6.97;;;;;;;;;;5005997;28;20193;-66
2022/06/07 09:43:23;;;;;;;9.68;6.70;;;;;;;;;;5009183;28;20187;-68
2022/06/07 09:46:07;;;;;;;8.30;6.95;;;;;;;;;;5009069;28;20175;-67
2022/06/07 09:48:43;;;;;;;12.60;7.25;;;;;;;;;;5007993;28;20182;-68
2022/06/07 09:51:09;;;;;;;12.18;6.90;;;;;;;;;;5004507;28;20210;-66
2022/06/07 09:53:37;;;;;;;8.52;6.60;;;;;;;;;;5005884;28;20264;-66
2022/06/07 09:56:21;;;;;;;10.77;6.43;;;;;;;;;;5009799;28;20186;-66
2022/06/07 09:58:58;;;;;;;8.20;6.75;;;;;;;;;;5009574;28;20254;-65
2022/06/07 10:02:11;;;;;;;8.40;6.43;;;;;;;;;;5003325;28;20326;-67
2022/06/07 10:05:01;;;;;;;8.20;6.93;;;;;;;;;;5004761;28;20254;-65
2022/06/07 10:07:44;;;;;;;8.82;6.05;;;;;;;;;;5008629;28;20182;-66
2022/06/07 10:10:37;;;;;;;7.07;5.47;;;;;;;;;;5003559;28;20182;-65
2022/06/07 10:13:14;;;;;;;9.02;5.43;;;;;;;;;;5003147;28;20183;-66
2022/06/07 10:15:48;;;;;;;9.43;5.43;;;;;;;;;;5006620;28;20316;-65
2022/06/07 10:18:55;;;;;;;8.32;5.38;;;;;;;;;;5001512;28;20192;-67
2022/06/07 10:21:49;;;;;;;8.18;5.65;;;;;;;;;;4997434;28;20182;-66
2022/06/07 10:24:24;;;;;;;6.80;5.43;;;;;;;;;;5001734;28;20222;-67
2022/06/07 10:27:23;;;;;;;8.68;5.43;;;;;;;;;;5007495;28;20178;-66
2022/06/07 10:30:09;;;;;;;6.95;5.18;;;;;;;;;;4995403;28;20267;-65
2022/06/07 10:32:53;;;;;;;8.63;6.40;;;;;;;;;;5001090;28;20281;-65
2022/06/07 10:35:39;;;;;;;10.10;6.45;;;;;;;;;;5003133;28;20183;-66
2022/06/07 10:38:44;;;;;;;9.35;6.68;;;;;;;;;;5006489;28;20646;-67
2022/06/07 10:41:34;;;;;;;7.80;6.28;;;;;;;;;;4997831;28;20198;-68
2022/06/07 10:44:02;;;;;;;9.05;6.57;;;;;;;;;;5002811;28;20190;-66
2022/06/07 10:46:29;;;;;;;8.25;5.78;;;;;;;;;;5001334;28;20242;-67
2022/06/07 10:49:27;;;;;;;7.68;5.93;;;;;;;;;;5001318;28;20201;-68
2022/06/07 10:52:24;;;;;;;10.43;5.72;;;;;;;;;;5005121;28;20583;-68
2022/06/07 10:55:09;;;;;;;6.78;6.03;;;;;;;;;;5000121;28;20188;-67
2022/06/07 10:57:46;;;;;;;7.55;5.05;;;;;;;;;;5001547;28;20190;-67
2022/06/07 11:00:33;;;;;;;7.57;5.90;;;;;;;;;;4997069;28;20202;-68
2022/06/07 11:03:17;;;;;;;7.15;5.40;;;;;;;;;;4999541;28;20667;-67
2022/06/07 11:11:20;;;;;;;8.27;5.00;;;;;;;;;;4994567;28;20274;-67
2022/06/07 11:14:11;;;;;;;8.27;5.43;;;;;;;;;;5033475;28;20610;-68
2022/06/07 11:17:11;;;;;;;6.68;5.47;;;;;;;;;;5003469;28;20182;-66
2022/06/07 11:19:36;;;;;;;7.35;6.00;;;;;;;;;;4980538;28;20203;-65
2022/06/07 11:22:05;;;;;;;6.90;5.43;;;;;;;;;;4989539;28;20184;-65
2022/06/07 11:24:33;;;;;;;8.32;5.45;;;;;;;;;;4999469;28;20277;-65
2022/06/07 11:27:07;;;;;;;6.43;5.05;;;;;;;;;;5007345;28;20277;-66
2022/06/07 11:29:33;;;;;;;6.93;4.85;;;;;;;;;;5008869;28;20187;-66
2022/06/07 11:32:01;;;;;;;6.68;5.85;;;;;;;;;;5001569;28;20280;-66
2022/06/07 11:34:34;;;;;;;6.85;5.00;;;;;;;;;;5018722;28;20197;-66
2022/06/07 11:37:22;;;;;;;8.00;6.10;;;;;;;;;;5009111;28;20214;-66
2022/06/07 11:39:56;;;;;;;6.47;5.50;;;;;;;;;;5006117;28;20191;-66
2022/06/07 11:42:33;;;;;;;7.05;5.85;;;;;;;;;;5010595;28;20179;-66
2022/06/07 11:45:01;;;;;;;5.97;5.38;;;;;;;;;;5008800;28;20528;-67
2022/06/07 11:47:49;;;;;;;7.43;6.50;;;;;;;;;;5010302;28;20183;-66
2022/06/07 11:50:41;;;;;;;10.20;5.72;;;;;;;;;;4996337;28;20198;-66
2022/06/07 11:53:30;;;;;;;8.63;5.93;;;;;;;;;;5006978;28;20193;-66
2022/06/07 11:56:23;;;;;;;7.35;5.63;;;;;;;;;;5007536;28;20187;-66
2022/06/07 11:59:11;;;;;;;9.80;6.40;;;;;;;;;;4993570;28;20467;-67
2022/06/07 12:01:41;;;;;;;10.07;6.57;;;;;;;;;;5002956;28;20183;-67
2022/06/07 12:04:52;;;;;;;7.90;6.20;;;;;;;;;;5011091;28;20209;-65
2022/06/07 12:07:36;;;;;;;9.50;6.22;;;;;;;;;;5006887;28;20183;-67
2022/06/07 12:10:17;;;;;;;8.43;6.43;;;;;;;;;;5007710;28;20190;-66
2022/06/07 12:12:50;;;;;;;9.65;6.47;;;;;;;;;;5004251;28;20205;-66
2022/06/07 12:15:24;;;;;;;8.27;6.88;;;;;;;;;;5007806;28;20190;-66
2022/06/07 12:18:02;;;;;;;7.47;5.85;;;;;;;;;;5005254;28;20329;-66
2022/06/07 12:20:36;;;;;;;8.93;5.72;;;;;;;;;;5008993;28;20222;-67
2022/06/07 12:23:17;;;;;;;9.18;5.93;;;;;;;;;;5019888;28;20219;-66
2022/06/07 12:25:54;;;;;;;10.68;6.03;;;;;;;;;;5008138;28;20230;-66
2022/06/07 12:28:27;;;;;;;7.00;5.50;;;;;;;;;;5005421;28;20672;-67
2022/06/07 12:30:52;;;;;;;7.32;5.80;;;;;;;;;;5008202;28;20209;-66
2022/06/07 12:33:24;;;;;;;7.47;6.22;;;;;;;;;;5009719;28;20191;-68
2022/06/07 12:36:02;;;;;;;7.80;6.07;;;;;;;;;;5010636;28;20693;-66
2022/06/07 12:38:30;;;;;;;8.57;5.85;;;;;;;;;;5007976;28;20198;-66
2022/06/07 12:41:06;;;;;;;6.93;6.00;;;;;;;;;;4999714;28;20187;-67
2022/06/07 12:43:37;;;;;;;7.00;5.63;;;;;;;;;;4999615;28;20192;-66
2022/06/07 12:46:17;;;;;;;6.85;5.50;;;;;;;;;;5009459;28;20201;-66
2022/06/07 12:48:43;;;;;;;6.93;5.22;;;;;;;;;;5008998;28;20193;-66
2022/06/07 12:51:22;;;;;;;5.97;5.25;;;;;;;;;;4995317;28;20180;-66
2022/06/07 12:53:49;;;;;;;8.95;5.65;;;;;;;;;;5009151;28;20189;-67
2022/06/07 12:56:18;;;;;;;7.85;5.85;;;;;;;;;;5005677;28;20649;-67
2022/06/07 12:58:48;;;;;;;7.65;5.32;;;;;;;;;;4999243;28;20695;-67
2022/06/07 13:01:22;;;;;;;7.57;5.68;;;;;;;;;;5010004;28;20587;-67
2022/06/07 13:03:48;;;;;;;7.05;5.57;;;;;;;;;;5009642;28;20193;-69
2022/06/07 13:06:19;;;;;;;7.25;5.30;;;;;;;;;;5007862;28;20183;-66
2022/06/07 13:08:56;;;;;;;5.95;5.30;;;;;;;;;;5001293;28;20202;-68
2022/06/07 13:11:21;;;;;;;8.30;5.90;;;;;;;;;;5010090;28;20179;-67
2022/06/07 13:13:47;;;;;;;6.65;5.70;;;;;;;;;;5007241;28;20208;-67
2022/06/07 13:16:12;;;;;;;6.90;5.68;;;;;;;;;;5007449;28;20179;-67
2022/06/07 13:18:43;;;;;;;5.80;5.15;;;;;;;;;;5007708;28;20834;-66
2022/06/07 13:21:17;;;;;;;6.85;5.60;;;;;;;;;;5006539;28;20292;-69
2022/06/07 13:23:44;;;;;;;7.30;4.85;;;;;;;;;;5006196;28;20245;-67
2022/06/07 13:26:19;;;;;;;6.22;5.13;;;;;;;;;;5041632;28;20233;-65
2022/06/07 13:28:45;;;;;;;7.65;5.68;;;;;;;;;;5037982;28;20223;-66
2022/06/07 13:31:31;;;;;;;8.88;6.03;;;;;;;;;;5010539;28;20234;-67
2022/06/07 13:34:05;;;;;;;7.85;5.70;;;;;;;;;;5022329;28;20180;-67
2022/06/07 13:36:39;;;;;;;7.43;5.75;;;;;;;;;;5006870;28;20181;-67
2022/06/07 13:39:05;;;;;;;8.35;6.22;;;;;;;;;;5007457;28;20279;-66
2022/06/07 13:41:31;;;;;;;8.02;5.68;;;;;;;;;;5009361;28;20495;-65
2022/06/07 13:44:20;;;;;;;11.05;5.50;;;;;;;;;;5038212;28;20187;-68
2022/06/07 13:47:01;;;;;;;8.68;5.63;;;;;;;;;;5003194;28;20190;-66
2022/06/07 13:55:34;;;;;;;8.18;5.63;;;;;;;;;;5008983;28;20240;-67
2022/06/07 13:58:00;;;;;;;8.35;5.70;;;;;;;;;;5007698;28;20202;-66
2022/06/07 14:00:25;;;;;;;7.05;5.47;;;;;;;;;;5000080;28;20201;-67
2022/06/07 14:02:51;;;;;;;8.43;5.82;;;;;;;;;;5005129;28;20561;-66
2022/06/07 14:05:22;;;;;;;8.05;5.55;;;;;;;;;;5009211;28;20179;-68
2022/06/07 14:07:47;;;;;;;8.85;6.32;;;;;;;;;;5006882;28;20178;-67
2022/06/07 14:10:17;;;;;;;8.38;6.22;;;;;;;;;;5009223;28;20642;-66
2022/06/07 14:12:43;;;;;;;8.07;5.65;;;;;;;;;;5008557;28;20194;-66
2022/06/07 14:15:09;;;;;;;6.13;5.50;;;;;;;;;;5008926;28;20194;-66
2022/06/07 14:17:34;;;;;;;6.05;5.35;;;;;;;;;;5006193;28;20198;-67
2022/06/07 14:20:00;;;;;;;6.88;5.70;;;;;;;;;;5007506;28;20264;-65
2022/06/07 14:22:30;;;;;;;8.82;6.22;;;;;;;;;;5037357;28;20183;-65
2022/06/07 14:24:56;;;;;;;9.25;5.40;;;;;;;;;;5003945;28;20247;-66
2022/06/07 14:27:24;;;;;;;7.07;5.57;;;;;;;;;;5005355;28;20186;-66
2022/06/07 14:29:51;;;;;;;7.07;5.28;;;;;;;;;;5008732;28;20302;-67
2022/06/07 14:32:23;;;;;;;10.93;4.85;;;;;;;;;;5003993;28;20258;-69
2022/06/07 14:34:49;;;;;;;7.07;4.82;;;;;;;;;;5006383;28;20582;-67
2022/06/07 14:37:17;;;;;;;7.32;4.82;;;;;;;;;;5004002;28;20206;-67
2022/06/07 14:39:44;;;;;;;7.88;4.00;;;;;;;;;;5006574;28;20639;-66
2022/06/07 14:42:10;;;;;;;8.48;4.63;;;;;;;;;;5007432;28;20233;-65
2022/06/07 14:44:35;;;;;;;7.43;5.40;;;;;;;;;;5007042;28;20178;-67
2022/06/07 14:47:02;;;;;;;5.70;4.72;;;;;;;;;;5005908;28;20184;-68
2022/06/07 14:49:36;;;;;;;7.75;5.40;;;;;;;;;;5002036;28;20537;-67
2022/06/07 14:52:05;;;;;;;6.57;4.57;;;;;;;;;;4990874;28;20179;-66
2022/06/07 14:54:34;;;;;;;7.85;5.05;;;;;;;;;;5002192;28;20514;-67
2022/06/07 14:57:01;;;;;;;5.78;5.18;;;;;;;;;;5008165;28;20202;-67
2022/06/07 14:59:27;;;;;;;6.72;4.57;;;;;;;;;;5003544;28;20189;-65
2022/06/07 15:01:57;;;;;;;7.13;4.72;;;;;;;;;;5009024;28;20280;-67
2022/06/07 15:04:48;;;;;;;6.60;4.63;;;;;;;;;;5006399;28;20178;-69
2022/06/07 15:07:21;;;;;;;4.72;4.20;;;;;;;;;;4991727;28;20199;-67
2022/06/07 15:09:47;;;;;;;7.22;5.00;;;;;;;;;;5004509;28;20626;-67
2022/06/07 15:12:16;;;;;;;6.05;4.72;;;;;;;;;;5008950;28;20187;-68
2022/06/07 15:14:44;;;;;;;5.85;4.25;;;;;;;;;;5010047;28;20521;-67
2022/06/07 15:17:15;;;;;;;4.28;3.70;;;;;;;;;;5008828;28;20337;-66
2022/06/07 15:19:43;;;;;;;4.47;3.83;;;;;;;;;;5005557;28;20183;-66